Vasiliy Bozhenko — URHP — position and weather

sailwx.info

Track history (hours):
 
Tides and Currents Weather Stations Pressure Air Temp Water Temp Dewpoint Dewpoint Depression Visibility Wind Speed Wind Dir Waves Ship Positions

Vasiliy Bozhenko

Last reported at 2015-May-23 05:33 UTC. Time now 2015-May-25 05:27 UTC.
Position N 39°46' E 024°17'.

Length 114 m; draft 3.8 m.

Type: Cargo ship. MMSI: 272085000.

Date/timePositionNaut miles runAvg speedWind from/ knotsBaromVisibWave heightAir tempDewpointWater temp
2015-May-23 05:33N 39°46' E 024°17'7 7.4
2015-May-23 04:33N 39°46' E 024°07'8 7.5
2015-May-23 03:26N 39°46' E 023°56'15 7.4
2015-May-23 01:28N 39°49' E 023°38'7 0.2
2015-May-21 16:30N 39°53' E 023°45'15 7.1
2015-May-21 14:21N 39°55' E 024°05'6 6.8
2015-May-21 13:25N 39°56' E 024°13'6 7.0
2015-May-21 12:31N 39°58' E 024°21'7 6.7
2015-May-21 11:31N 39°58' E 024°30'  
2015-May-17 19:23N 46°31' E 031°27'5 5.8
2015-May-17 18:33N 46°35' E 031°30'6 6.4
2015-May-17 17:33N 46°36' E 031°39'7 6.6
2015-May-17 16:33N 46°35' E 031°49'7 6.8
2015-May-17 15:33N 46°33' E 031°58'9 6.5
2015-May-17 14:13N 46°32' E 032°11'141 4.3
2015-May-16 05:33N 47°44' E 035°10'4 4.2
2015-May-16 04:33N 47°49' E 035°09'4 4.2
2015-May-16 03:33N 47°52' E 035°05'1 0.8
2015-May-16 02:33N 47°52' E 035°06'0 0.3
2015-May-16 01:31N 47°52' E 035°06'0 0.0
2015-May-16 00:29N 47°52' E 035°06'0 0.0
2015-May-15 23:30N 47°52' E 035°06'0 0.0
2015-May-15 22:20N 47°52' E 035°06'0 0.0
2015-May-15 21:32N 47°52' E 035°06'0 0.0
2015-May-15 20:33N 47°52' E 035°06'0 0.0
2015-May-15 19:30N 47°52' E 035°06'0 0.0
2015-May-15 18:30N 47°52' E 035°06'0 0.0
2015-May-15 17:30N 47°52' E 035°06'0 0.0
2015-May-15 16:28N 47°52' E 035°06'0 0.0
2015-May-15 15:31N 47°52' E 035°06'0 0.0
2015-May-15 14:31N 47°52' E 035°06'0 0.0
2015-May-15 13:28N 47°52' E 035°06'0 0.0
2015-May-15 12:23N 47°52' E 035°06'0 0.0
2015-May-15 11:31N 47°52' E 035°06'0 0.0
2015-May-15 10:31N 47°52' E 035°06'0 0.0
2015-May-15 09:29N 47°52' E 035°06'0 0.0
2015-May-15 08:27N 47°52' E 035°06'0 0.0
2015-May-15 07:31N 47°52' E 035°06'0 0.0
2015-May-15 06:31N 47°52' E 035°06'0 0.0
2015-May-15 05:07N 47°52' E 035°06'0 0.0
2015-May-15 04:30N 47°52' E 035°06'0 0.0
2015-May-15 03:30N 47°52' E 035°06'0 0.0
2015-May-15 02:29N 47°52' E 035°06'0 0.0
2015-May-15 01:34N 47°52' E 035°06'0 0.0
2015-May-15 00:22N 47°52' E 035°06'0 0.0
2015-May-14 23:32N 47°52' E 035°06'0 0.0
2015-May-14 22:33N 47°52' E 035°06'0 0.0
2015-May-14 21:33N 47°52' E 035°06'0 0.0
2015-May-14 20:33N 47°52' E 035°06'0 0.0
2015-May-14 19:32N 47°52' E 035°06'0 0.0
2015-May-14 18:33N 47°52' E 035°06'0 0.0
2015-May-14 17:31N 47°52' E 035°06'0 0.0
2015-May-14 16:31N 47°52' E 035°06'0 0.0
2015-May-14 15:23N 47°52' E 035°06'0 0.3
2015-May-14 14:33N 47°52' E 035°06'0 0.1
2015-May-14 13:33N 47°52' E 035°06'0 0.0
2015-May-14 12:29N 47°52' E 035°06'0 0.0
2015-May-14 11:29N 47°52' E 035°06'0 0.0
2015-May-14 10:28N 47°52' E 035°06'0 0.0
2015-May-14 09:28N 47°52' E 035°06'0 0.0
2015-May-14 08:28N 47°52' E 035°06'0 0.0
2015-May-14 07:28N 47°52' E 035°06'0 0.0
2015-May-14 06:28N 47°52' E 035°06'0 0.0
2015-May-14 05:28N 47°52' E 035°06'0 0.0
2015-May-14 04:33N 47°52' E 035°06'1 0.7
2015-May-14 03:33N 47°52' E 035°06'2 2.3
2015-May-14 02:33N 47°50' E 035°07'3 2.6
2015-May-14 01:33N 47°48' E 035°10'0 0.1
2015-May-14 00:31N 47°48' E 035°10'3 3.1
2015-May-13 23:34N 47°45' E 035°10'  
Track history (hours):
 
Tides and Currents Weather Stations Pressure Air Temp Water Temp Dewpoint Dewpoint Depression Visibility Wind Speed Wind Dir Waves Ship Positions

Vasiliy Bozhenko

Last reported at 2015-May-23 05:33 UTC. Time now 2015-May-25 05:27 UTC.
Position N 39°46' E 024°17'.

Length 114 m; draft 3.8 m.

Type: Cargo ship. MMSI: 272085000.

Date/timePositionNaut miles runAvg speedWind from/ knotsBaromVisibWave heightAir tempDewpointWater temp
2015-May-23 05:33N 39°46' E 024°17'7 7.4
2015-May-23 04:33N 39°46' E 024°07'8 7.5
2015-May-23 03:26N 39°46' E 023°56'15 7.4
2015-May-23 01:28N 39°49' E 023°38'7 0.2
2015-May-21 16:30N 39°53' E 023°45'15 7.1
2015-May-21 14:21N 39°55' E 024°05'6 6.8
2015-May-21 13:25N 39°56' E 024°13'6 7.0
2015-May-21 12:31N 39°58' E 024°21'7 6.7
2015-May-21 11:31N 39°58' E 024°30'  
2015-May-17 19:23N 46°31' E 031°27'5 5.8
2015-May-17 18:33N 46°35' E 031°30'6 6.4
2015-May-17 17:33N 46°36' E 031°39'7 6.6
2015-May-17 16:33N 46°35' E 031°49'7 6.8
2015-May-17 15:33N 46°33' E 031°58'9 6.5
2015-May-17 14:13N 46°32' E 032°11'141 4.3
2015-May-16 05:33N 47°44' E 035°10'4 4.2
2015-May-16 04:33N 47°49' E 035°09'4 4.2
2015-May-16 03:33N 47°52' E 035°05'1 0.8
2015-May-16 02:33N 47°52' E 035°06'0 0.3
2015-May-16 01:31N 47°52' E 035°06'0 0.0
2015-May-16 00:29N 47°52' E 035°06'0 0.0
2015-May-15 23:30N 47°52' E 035°06'0 0.0
2015-May-15 22:20N 47°52' E 035°06'0 0.0
2015-May-15 21:32N 47°52' E 035°06'0 0.0
2015-May-15 20:33N 47°52' E 035°06'0 0.0
2015-May-15 19:30N 47°52' E 035°06'0 0.0
2015-May-15 18:30N 47°52' E 035°06'0 0.0
2015-May-15 17:30N 47°52' E 035°06'0 0.0
2015-May-15 16:28N 47°52' E 035°06'0 0.0
2015-May-15 15:31N 47°52' E 035°06'0 0.0
2015-May-15 14:31N 47°52' E 035°06'0 0.0
2015-May-15 13:28N 47°52' E 035°06'0 0.0
2015-May-15 12:23N 47°52' E 035°06'0 0.0
2015-May-15 11:31N 47°52' E 035°06'0 0.0
2015-May-15 10:31N 47°52' E 035°06'0 0.0
2015-May-15 09:29N 47°52' E 035°06'0 0.0
2015-May-15 08:27N 47°52' E 035°06'0 0.0
2015-May-15 07:31N 47°52' E 035°06'0 0.0
2015-May-15 06:31N 47°52' E 035°06'0 0.0
2015-May-15 05:07N 47°52' E 035°06'0 0.0
2015-May-15 04:30N 47°52' E 035°06'0 0.0
2015-May-15 03:30N 47°52' E 035°06'0 0.0
2015-May-15 02:29N 47°52' E 035°06'0 0.0
2015-May-15 01:34N 47°52' E 035°06'0 0.0
2015-May-15 00:22N 47°52' E 035°06'0 0.0
2015-May-14 23:32N 47°52' E 035°06'0 0.0
2015-May-14 22:33N 47°52' E 035°06'0 0.0
2015-May-14 21:33N 47°52' E 035°06'0 0.0
2015-May-14 20:33N 47°52' E 035°06'0 0.0
2015-May-14 19:32N 47°52' E 035°06'0 0.0
2015-May-14 18:33N 47°52' E 035°06'0 0.0
2015-May-14 17:31N 47°52' E 035°06'0 0.0
2015-May-14 16:31N 47°52' E 035°06'0 0.0
2015-May-14 15:23N 47°52' E 035°06'0 0.3
2015-May-14 14:33N 47°52' E 035°06'0 0.1
2015-May-14 13:33N 47°52' E 035°06'0 0.0
2015-May-14 12:29N 47°52' E 035°06'0 0.0
2015-May-14 11:29N 47°52' E 035°06'0 0.0
2015-May-14 10:28N 47°52' E 035°06'0 0.0
2015-May-14 09:28N 47°52' E 035°06'0 0.0
2015-May-14 08:28N 47°52' E 035°06'0 0.0
2015-May-14 07:28N 47°52' E 035°06'0 0.0
2015-May-14 06:28N 47°52' E 035°06'0 0.0
2015-May-14 05:28N 47°52' E 035°06'0 0.0
2015-May-14 04:33N 47°52' E 035°06'1 0.7
2015-May-14 03:33N 47°52' E 035°06'2 2.3
2015-May-14 02:33N 47°50' E 035°07'3 2.6
2015-May-14 01:33N 47°48' E 035°10'0 0.1
2015-May-14 00:31N 47°48' E 035°10'3 3.1
2015-May-13 23:34N 47°45' E 035°10'  

Dump ship's entire track history